Flight Track Log - Related Links

Times and Time Zones

All times are in EDT time to prevent confusion due to time zone crossing. See the GJS3669 flight status page for this flight to view local times or setup timezone preferences in your user account.

Time Position Orientation Groundspeed Altitude Reporting Facility
EDT Latitude Longitude Course Direction KTS MPH feet Rate Location/Type
Thu 06:58:59 AM 41.3128 -95.9092 44° Northeast 164 189 1,800  Level Minneapolis Center
Thu 06:59:23 AM 41.3300 -95.9128 351° North 146 168 3,400 2,400 Climbing Minneapolis Center
Thu 06:59:59 AM 41.3503 -95.9000 25° Northeast 213 245 4,200 1,750 Climbing Minneapolis Center
Thu 07:00:59 AM 41.3997 -95.8500 37° Northeast 222 255 6,200 1,983 Climbing Minneapolis Center
Thu 07:02:00 AM 41.6399 -95.4855 42° Northeast  Level FlightAware Approximate
Thu 07:02:00 AM 41.4392 -95.7619 59° Northeast 265 305 8,200  Level Minneapolis Center
Thu 07:03:00 AM 41.7201 -95.3789 44° Northeast  Level FlightAware Approximate
Thu 07:03:00 AM 41.4744 -95.6492 67° East 302 348 10,500  Level Minneapolis Center
Thu 07:04:00 AM 41.8019 -95.2738 44° Northeast  Level FlightAware Approximate
Thu 07:04:01 AM 41.5131 -95.5239 68° East 335 386 12,200  Level Minneapolis Center
Thu 07:05:01 AM 41.5569 -95.3844 67° East 391 450 14,600 2,628 Climbing Minneapolis Center
Thu 07:06:02 AM 41.5997 -95.2453 68° East 402 463 17,500 2,826 Climbing Minneapolis Center
Thu 07:07:02 AM 41.6403 -95.1117 68° East 392 451 20,300 2,380 Climbing Minneapolis Center
Thu 07:08:03 AM 41.6817 -94.9767 68° East 390 449 22,300 1,934 Climbing Minneapolis Center
Thu 07:09:03 AM 41.7244 -94.8383 67° East 395 455 24,200 1,835 Climbing Minneapolis Center
Thu 07:10:04 AM 41.7767 -94.6644 68° East 415 478 26,000 1,587 Climbing Minneapolis Center
Thu 07:11:04 AM 41.8222 -94.5158 68° East 424 488 27,400 1,388 Climbing Minneapolis Center
Thu 07:12:05 AM 41.8661 -94.3633 69° East 436 502 28,800 1,328 Climbing Minneapolis Center
Thu 07:13:06 AM 41.9133 -94.2086 68° East 446 513 30,100 893 Climbing Minneapolis Center
Thu 07:14:06 AM 41.9606 -94.0483 68° East 458 527 30,600 496 Climbing Minneapolis Center
Thu 07:15:07 AM 42.0097 -93.8781 69° East 485 558 31,100 541 Climbing Minneapolis Center
Thu 07:16:08 AM 42.0592 -93.7133 68° East 497 572 31,700 843 Climbing Minneapolis Center
Thu 07:17:08 AM 42.1097 -93.5372 69° East 505 581 32,800 645 Climbing Minneapolis Center
Thu 07:18:09 AM 42.1611 -93.3592 69° East 509 586 33,000 98 Climbing Minneapolis Center
Thu 07:19:10 AM 42.2122 -93.1800 69° East 516 594 33,000  Level Minneapolis Center
Thu 07:20:10 AM 42.2617 -93.0053 69° East 510 587 33,000  Level Minneapolis Center
Thu 07:21:11 AM 42.3175 -92.7950 70° East 504 580 33,000  Level Minneapolis Center
Thu 07:22:12 AM 42.3311 -92.6075 84° East 504 580 33,000 -98 Level Minneapolis Center
Thu 07:23:13 AM 42.3461 -92.4192 84° East 504 580 32,800 -443 Descending Minneapolis Center
Thu 07:24:14 AM 42.3608 -92.2283 84° East 513 590 32,100 -659 Descending Minneapolis Center
Thu 07:24:44 AM 42.3661 -92.1508 85° East 514 592 31,800 -700 Descending Chicago Center
Thu 07:25:14 AM 42.3753 -92.0383 84° East 513 590 31,400 -787 Descending Minneapolis Center
Thu 07:25:45 AM 42.3831 -91.9219 85° East 515 593 31,000 -261 Descending Chicago Center
Thu 07:26:46 AM 42.3972 -91.7311 84° East 517 595 31,000  Level Chicago Center
Thu 07:27:48 AM 42.4108 -91.5428 84° East 517 595 31,000  Level Chicago Center
Thu 07:28:49 AM 42.4228 -91.3536 85° East 517 595 31,000  Level Chicago Center
Thu 07:29:50 AM 42.4344 -91.1686 85° East 508 585 31,000 -634 Level Chicago Center
Thu 07:30:52 AM 42.4492 -90.9436 85° East 507 583 29,700 -1,073 Descending Chicago Center
Thu 07:31:53 AM 42.4611 -90.7567 85° East 505 581 28,800 -927 Descending Chicago Center
Thu 07:32:55 AM 42.4725 -90.5661 85° East 513 590 27,800 -976 Descending Chicago Center
Thu 07:33:56 AM 42.4833 -90.3778 85° East 511 588 26,800 -976 Descending Chicago Center
Thu 07:34:58 AM 42.4897 -90.1914 87° East 501 577 25,800 -976 Descending Chicago Center
Thu 07:35:59 AM 42.4808 -90.0028 94° East 504 580 24,800 -1,268 Descending Chicago Center
Thu 07:37:01 AM 42.4728 -89.7858 93° East 510 587 23,200 -1,756 Descending Chicago Center
Thu 07:38:02 AM 42.4636 -89.6044 94° East 494 568 21,200 -1,951 Descending Chicago Center
Thu 07:39:04 AM 42.4561 -89.4278 93° East 479 551 19,200 -2,098 Descending Chicago Center
Thu 07:40:05 AM 42.4483 -89.2528 93° East 474 545 16,900 -2,293 Descending Chicago Center
Thu 07:41:07 AM 42.4397 -89.0483 93° East 460 529 14,500 -2,098 Descending Chicago Center
Thu 07:42:08 AM 42.4328 -88.8933 93° East 422 486 12,600 -1,659 Descending Chicago Center
Thu 07:43:10 AM 42.4253 -88.7533 94° East 384 442 11,100 -780 Descending Chicago Center
Thu 07:44:11 AM 42.4097 -88.6172 99° East 373 429 11,000 -49 Descending Chicago Center
Thu 07:45:13 AM 42.3711 -88.4875 112° Southeast 372 428 11,000  Level Chicago Center
Thu 07:46:15 AM 42.3167 -88.3483 118° Southeast 381 438 11,000  Level Chicago Center
Thu 07:47:16 AM 42.2544 -88.2447 129° Southeast 356 410 11,000  Level Chicago Center
Thu 07:48:18 AM 42.1897 -88.1492 132° Southeast 346 398 11,000 -823 Level Chicago Center
Thu 07:49:20 AM 42.1211 -88.0733 141° Southeast 302 348 9,300 -1,707 Descending Chicago Center
Thu 07:50:21 AM 42.0606 -88.0017 139° Southeast 293 337 7,500 -1,122 Descending Chicago Center
Thu 07:51:23 AM 42.0000 -87.9342 140° Southeast 281 323 7,000 -242 Descending Chicago Center
Thu 07:52:25 AM 41.9475 -87.8742 140° Southeast 218 251 7,000 -341 Level Chicago Center
Thu 07:53:26 AM 41.9114 -87.8125 128° Southeast 211 243 6,300 -1,317 Descending Chicago Center
Thu 07:54:28 AM 41.8928 -87.7314 107° East 230 265 4,300 -1,065 Descending Chicago Center
Thu 07:55:30 AM 41.9264 -87.6761 51° Northeast 209 241 4,100 -585 Descending Chicago Center
Thu 07:56:31 AM 41.9592 -87.7222 314° West 172 198 3,100 -780 Descending Chicago Center
Thu 07:57:33 AM 41.9656 -87.7700 280° West 134 154 2,500 -532 Descending Chicago Center
Thu 07:58:35 AM 41.9644 -87.8081 268° West 100 115 2,000 -581 Descending Chicago Center
Thu 07:59:37 AM 41.9650 -87.8508 271° West 111 128 1,300 -585 Descending Chicago Center
Thu 08:00:38 AM 41.9647 -87.9008 270° West 125 144 800 -492 Descending Chicago Center

Login

Don't have an account? Register now (free) for customized features, flight alerts, and more!